Time;durP1;ratioP1;P1;durP2;ratioP2;P2;SDS_P1;SDS_P2;PMS_P1;PMS_P2;Temp;Humidity;BMP_temperature;BMP_pressure;BME280_temperature;BME280_humidity;BME280_pressure;Samples;Min_cycle;Max_cycle;Signal;HPM_P1;HPM_P2
2022/09/29 00:00:52;;;;;;;;;;;;;;;11.34;60.31;98963.41;4932261;28;8817;-79
2022/09/29 00:03:19;;;;;;;;;;;;;;;11.34;60.24;98958.28;4919219;28;7012;-78
2022/09/29 00:05:50;;;;;;;;;;;;;;;11.32;60.20;98958.22;4925422;28;8507;-78
2022/09/29 00:08:18;;;;;;;;;;;;;;;11.31;60.41;98960.78;4937302;28;7117;-78
2022/09/29 00:10:44;;;;;;;;;;;;;;;11.29;59.97;98960.75;4938852;28;6943;-78
2022/09/29 00:13:11;;;;;;;;;;;;;;;11.26;59.91;98963.25;4936837;28;7218;-78
2022/09/29 00:15:36;;;;;;;;;;;;;;;11.27;59.99;98956.41;4937425;28;7399;-78
2022/09/29 00:18:03;;;;;;;;;;;;;;;11.24;60.13;98954.63;4928430;28;7012;-78
2022/09/29 00:20:31;;;;;;;;;;;;;;;11.23;60.24;98955.47;4938911;28;6946;-78
2022/09/29 00:22:56;;;;;;;;;;;;;;;11.20;60.20;98952.84;4934334;28;8686;-78
2022/09/29 00:25:22;;;;;;;;;;;;;;;11.19;60.29;98956.25;4934574;28;7267;-78
2022/09/29 00:27:47;;;;;;;;;;;;;;;11.19;60.26;98958.81;4931752;28;7213;-77
2022/09/29 00:30:13;;;;;;;;;;;;;;;11.18;60.21;98965.63;4917471;28;8429;-78
2022/09/29 00:32:39;;;;;;;;;;;;;;;11.16;60.30;98957.03;4933751;28;7340;-79
2022/09/29 00:35:07;;;;;;;;;;;;;;;11.16;60.18;98951.91;4935170;28;6929;-78
2022/09/29 00:37:34;;;;;;;;;;;;;;;11.14;60.15;98947.56;4935016;28;6812;-78
2022/09/29 00:40:00;;;;;;;;;;;;;;;11.13;60.49;98949.28;4933359;28;6936;-78
2022/09/29 00:42:26;;;;;;;;;;;;;;;11.12;60.32;98950.13;4930520;28;6981;-78
2022/09/29 00:45:01;;;;;;;;;;;;;;;11.12;60.34;98955.25;4921484;28;9113;-78
2022/09/29 00:47:30;;;;;;;;;;;;;;;11.10;60.27;98956.88;4935539;28;6973;-78
2022/09/29 00:50:11;;;;;;;;;;;;;;;11.11;60.15;98956.06;4928195;28;7284;-78
2022/09/29 00:52:43;;;;;;;;;;;;;;;11.10;60.71;98954.31;4931311;28;7243;-78
2022/09/29 00:55:16;;;;;;;;;;;;;;;11.10;60.44;98959.44;4918074;28;8466;-79
2022/09/29 00:57:50;;;;;;;;;;;;;;;11.09;60.61;98960.28;4933877;28;7151;-78
2022/09/29 01:00:16;;;;;;;;;;;;;;;11.08;60.54;98954.31;4933243;28;8847;-79
2022/09/29 01:02:56;;;;;;;;;;;;;;;11.07;60.31;98950.00;4932414;28;7231;-79
2022/09/29 01:05:35;;;;;;;;;;;;;;;11.05;60.21;98955.94;4932152;28;6971;-79
2022/09/29 01:08:23;;;;;;;;;;;;;;;11.02;60.17;98953.31;4930925;28;7172;-79
2022/09/29 01:10:52;;;;;;;;;;;;;;;10.97;60.35;98951.47;4923808;28;6888;-78
2022/09/29 01:13:19;;;;;;;;;;;;;;;10.94;60.47;98951.41;4934614;28;7029;-79
2022/09/29 01:15:45;;;;;;;;;;;;;;;10.94;60.31;98958.22;4919414;28;8471;-78
2022/09/29 01:18:11;;;;;;;;;;;;;;;10.92;60.13;98952.22;4935268;28;8509;-79
2022/09/29 01:21:13;;;;;;;;;;;;;;;10.91;60.57;98955.59;4938233;28;7215;-79
2022/09/29 01:24:32;;;;;;;;;;;;;;;10.90;60.34;98959.00;4907008;28;7186;-78
2022/09/29 01:27:26;;;;;;;;;;;;;;;10.87;60.81;98964.91;4939301;28;6998;-79
2022/09/29 01:30:11;;;;;;;;;;;;;;;10.82;60.89;98956.28;4934855;28;8098;-78
2022/09/29 01:32:54;;;;;;;;;;;;;;;10.83;60.20;98973.38;4936910;28;11236;-78
2022/09/29 01:35:30;;;;;;;;;;;;;;;10.83;60.60;98963.97;4935158;28;6968;-79
2022/09/29 01:38:29;;;;;;;;;;;;;;;10.82;60.84;98969.94;4940799;28;7231;-79
2022/09/29 01:41:09;;;;;;;;;;;;;;;10.83;60.55;98973.38;4939396;28;7355;-79
2022/09/29 01:44:02;;;;;;;;;;;;;;;10.82;60.40;98979.34;4935715;28;7203;-78
2022/09/29 01:46:58;;;;;;;;;;;;;;;10.82;60.67;98976.78;4939147;28;7374;-78
2022/09/29 01:49:30;;;;;;;;;;;;;;;10.82;60.60;98976.78;4939194;28;8656;-79
2022/09/29 01:52:16;;;;;;;;;;;;;;;10.81;60.67;98980.13;4935403;28;6808;-79
2022/09/29 01:54:57;;;;;;;;;;;;;;;10.82;60.47;98980.19;4937783;28;7016;-78
2022/09/29 01:57:44;;;;;;;;;;;;;;;10.81;60.58;98980.13;4938811;28;6824;-79
2022/09/29 02:00:13;;;;;;;;;;;;;;;10.80;60.79;98978.41;4922124;28;7253;-78
2022/09/29 02:02:56;;;;;;;;;;;;;;;10.79;60.37;98976.69;4920122;28;8397;-79
2022/09/29 02:05:38;;;;;;;;;;;;;;;10.78;60.81;98980.06;4936626;28;6824;-78
2022/09/29 02:08:31;;;;;;;;;;;;;;;10.76;60.65;98977.47;4919682;28;6808;-79
2022/09/29 02:11:11;;;;;;;;;;;;;;;10.74;60.22;98980.84;4934485;28;7417;-78
2022/09/29 02:13:40;;;;;;;;;;;;;;;10.73;60.68;98977.41;4921070;28;7233;-79
2022/09/29 02:16:15;;;;;;;;;;;;;;;10.72;60.05;98979.91;4936385;28;7202;-78
2022/09/29 02:18:54;;;;;;;;;;;;;;;10.69;60.69;98980.72;4926412;28;8439;-78
2022/09/29 02:21:26;;;;;;;;;;;;;;;10.67;60.29;98978.13;4924641;28;8751;-79
2022/09/29 02:23:51;;;;;;;;;;;;;;;10.65;60.58;98979.78;4934831;28;7206;-79
2022/09/29 02:26:19;;;;;;;;;;;;;;;10.64;60.14;98978.06;4933617;28;6796;-79
2022/09/29 02:28:46;;;;;;;;;;;;;;;10.64;60.52;98978.06;4935186;28;6871;-79
2022/09/29 02:31:13;;;;;;;;;;;;;;;10.65;60.86;98979.78;4904333;28;8661;-79
2022/09/29 02:33:39;;;;;;;;;;;;;;;10.65;60.67;98979.78;4934687;28;8396;-78
2022/09/29 02:36:31;;;;;;;;;;;;;;;10.64;59.98;98983.16;4939611;28;6860;-79
2022/09/29 02:39:14;;;;;;;;;;;;;;;10.59;60.44;98966.81;4936474;28;6828;-79
2022/09/29 02:42:00;;;;;;;;;;;;;;;10.57;60.25;98976.16;4937714;28;7046;-78
2022/09/29 02:45:03;;;;;;;;;;;;;;;10.53;60.15;98971.78;4934340;28;6838;-77
2022/09/29 02:48:00;;;;;;;;;;;;;;;10.48;60.00;98970.78;4936583;28;7031;-77
2022/09/29 02:50:47;;;;;;;;;;;;;;;10.44;59.89;98974.13;4936029;28;7199;-77
2022/09/29 02:53:51;;;;;;;;;;;;;;;10.37;59.90;98971.34;4935305;28;7058;-77
2022/09/29 02:56:23;;;;;;;;;;;;;;;10.31;59.08;98963.50;4936462;28;7206;-77
2022/09/29 02:59:09;;;;;;;;;;;;;;;10.26;59.15;98972.78;4935669;28;6956;-77
2022/09/29 03:01:48;;;;;;;;;;;;;;;10.19;59.37;98971.75;4936737;28;6968;-77
2022/09/29 03:04:14;;;;;;;;;;;;;;;10.12;59.48;98978.38;4934146;28;7406;-77
2022/09/29 03:06:39;;;;;;;;;;;;;;;10.07;58.81;98974.84;4938132;28;6949;-77
2022/09/29 03:09:05;;;;;;;;;;;;;;;10.02;59.46;98976.41;4933717;28;8497;-77
2022/09/29 03:11:31;;;;;;;;;;;;;;;9.98;59.41;98979.72;4919761;28;6948;-77
2022/09/29 03:13:56;;;;;;;;;;;;;;;9.92;59.57;98977.84;4935629;28;7836;-77
2022/09/29 03:16:22;;;;;;;;;;;;;;;9.86;59.29;98970.88;4936370;28;7191;-77
2022/09/29 03:18:48;;;;;;;;;;;;;;;9.82;58.84;98971.59;4936880;28;7042;-77
2022/09/29 03:21:13;;;;;;;;;;;;;;;9.79;59.45;98971.53;4932478;28;7158;-77
2022/09/29 03:23:39;;;;;;;;;;;;;;;9.77;58.97;98970.63;4923104;28;8442;-77
2022/09/29 03:26:04;;;;;;;;;;;;;;;9.76;59.43;98973.13;4939693;28;7151;-78
2022/09/29 03:28:30;;;;;;;;;;;;;;;9.72;58.75;98978.16;4931620;28;6832;-77
2022/09/29 03:31:08;;;;;;;;;;;;;;;9.68;59.91;98967.78;4928623;28;7184;-78
2022/09/29 03:33:37;;;;;;;;;;;;;;;9.66;59.32;98974.56;4935954;28;6820;-77
2022/09/29 03:36:04;;;;;;;;;;;;;;;9.63;59.29;98971.91;4920793;28;7052;-77
2022/09/29 03:38:32;;;;;;;;;;;;;;;9.61;60.15;98971.00;4932926;28;6960;-77
2022/09/29 03:40:57;;;;;;;;;;;;;;;9.58;59.76;98962.41;4923841;28;8487;-78
2022/09/29 03:43:23;;;;;;;;;;;;;;;9.57;59.55;98972.59;4924083;28;6970;-77
2022/09/29 03:45:51;;;;;;;;;;;;;;;9.55;59.37;98971.69;4928170;28;10250;-77
2022/09/29 03:48:19;;;;;;;;;;;;;;;9.54;60.68;98973.38;4935612;28;8237;-77
2022/09/29 03:50:48;;;;;;;;;;;;;;;9.55;60.66;98969.13;4937697;28;6930;-77
2022/09/29 03:53:15;;;;;;;;;;;;;;;9.54;60.50;98973.38;4915725;28;7186;-77
2022/09/29 03:55:46;;;;;;;;;;;;;;;9.54;60.45;98978.47;4931716;28;6855;-77
2022/09/29 03:58:12;;;;;;;;;;;;;;;9.55;60.37;98979.38;4929041;28;7011;-78
2022/09/29 04:00:37;;;;;;;;;;;;;;;9.54;60.62;98978.47;4916221;28;7189;-78
2022/09/29 04:03:03;;;;;;;;;;;;;;;9.51;60.35;98978.41;4925171;28;6928;-78
2022/09/29 04:05:29;;;;;;;;;;;;;;;9.48;59.75;98983.44;4912650;28;7165;-77
2022/09/29 04:07:55;;;;;;;;;;;;;;;9.44;60.21;98982.47;4932877;28;6796;-77
2022/09/29 04:10:21;;;;;;;;;;;;;;;9.42;60.23;98985.78;4925255;28;9132;-77
2022/09/29 04:12:47;;;;;;;;;;;;;;;9.40;59.62;98990.00;4930390;28;9488;-76
2022/09/29 04:15:13;;;;;;;;;;;;;;;9.37;59.96;98989.94;4936239;28;8491;-77
2022/09/29 04:17:39;;;;;;;;;;;;;;;9.34;59.36;98992.38;4914686;28;8858;-77
2022/09/29 04:20:06;;;;;;;;;;;;;;;9.29;60.21;98990.56;4927918;28;9262;-78
2022/09/29 04:22:32;;;;;;;;;;;;;;;9.26;59.84;98995.56;4929662;28;6875;-78
2022/09/29 04:24:58;;;;;;;;;;;;;;;9.21;59.57;98988.56;4934695;28;6863;-77
2022/09/29 04:27:24;;;;;;;;;;;;;;;9.15;59.87;98994.34;4919528;28;8475;-78
2022/09/29 04:29:50;;;;;;;;;;;;;;;9.13;60.20;98994.34;4938147;28;9642;-77
2022/09/29 04:32:15;;;;;;;;;;;;;;;9.12;60.59;99001.94;4915019;29;6796;-77
2022/09/29 04:34:41;;;;;;;;;;;;;;;9.12;60.00;98995.13;4913515;29;7205;-77
2022/09/29 04:37:11;;;;;;;;;;;;;;;9.11;60.61;98993.38;4913277;28;7227;-77
2022/09/29 04:39:37;;;;;;;;;;;;;;;9.12;60.91;99002.78;4902202;29;6998;-77
2022/09/29 04:42:03;;;;;;;;;;;;;;;9.14;61.06;99005.41;4912418;29;6929;-77
2022/09/29 04:44:28;;;;;;;;;;;;;;;9.13;59.72;99006.22;4897764;29;8417;-77
2022/09/29 04:46:54;;;;;;;;;;;;;;;9.11;59.74;99015.53;4912864;29;8951;-77
2022/09/29 04:49:20;;;;;;;;;;;;;;;9.10;60.46;99019.78;4901231;29;6781;-77
2022/09/29 04:51:46;;;;;;;;;;;;;;;9.09;60.70;99014.63;4903206;28;8867;-78
2022/09/29 04:54:13;;;;;;;;;;;;;;;9.10;60.98;99013.81;4920044;28;6784;-78
2022/09/29 04:56:38;;;;;;;;;;;;;;;9.10;59.95;99011.25;4924952;28;7192;-77
2022/09/29 04:59:05;;;;;;;;;;;;;;;9.13;61.39;99021.56;4919700;28;6772;-77
2022/09/29 05:01:31;;;;;;;;;;;;;;;9.13;60.86;99006.22;4918454;28;7084;-77
2022/09/29 05:03:57;;;;;;;;;;;;;;;9.14;60.11;99018.19;4927029;28;8525;-78
2022/09/29 05:06:22;;;;;;;;;;;;;;;9.15;60.65;99022.47;4935486;28;9512;-78
2022/09/29 05:08:48;;;;;;;;;;;;;;;9.14;59.33;99020.75;4938994;28;7929;-78
2022/09/29 05:11:14;;;;;;;;;;;;;;;9.12;59.95;99027.50;4928240;28;7254;-78
2022/09/29 05:13:39;;;;;;;;;;;;;;;9.09;59.59;99022.31;4938388;28;7207;-78
2022/09/29 05:16:06;;;;;;;;;;;;;;;9.07;60.57;99029.03;4941110;28;7202;-77
2022/09/29 05:18:31;;;;;;;;;;;;;;;9.03;60.33;99031.50;4940782;28;7213;-77
2022/09/29 05:21:06;;;;;;;;;;;;;;;9.01;60.75;99034.81;4925295;28;9653;-77
2022/09/29 05:23:33;;;;;;;;;;;;;;;8.98;60.64;99027.94;4926563;28;6832;-77
2022/09/29 05:26:04;;;;;;;;;;;;;;;8.99;60.57;99039.91;4926878;28;6862;-77
2022/09/29 05:28:30;;;;;;;;;;;;;;;9.01;60.98;99037.38;4936245;28;9250;-78
2022/09/29 05:31:07;;;;;;;;;;;;;;;9.01;59.68;99038.25;4938166;28;7940;-78
2022/09/29 05:33:35;;;;;;;;;;;;;;;9.00;60.15;99041.63;4936677;28;6953;-78
2022/09/29 05:36:07;;;;;;;;;;;;;;;9.01;60.51;99038.25;4921717;28;7319;-77
2022/09/29 05:38:34;;;;;;;;;;;;;;;9.02;60.80;99039.97;4920365;28;7232;-77
2022/09/29 05:41:09;;;;;;;;;;;;;;;9.05;60.87;99053.69;4932863;28;6797;-77
2022/09/29 05:43:35;;;;;;;;;;;;;;;9.07;61.29;99052.91;4938340;28;6818;-77
2022/09/29 05:46:04;;;;;;;;;;;;;;;9.07;61.00;99047.81;4937888;28;6780;-77
2022/09/29 05:48:31;;;;;;;;;;;;;;;9.09;60.50;99052.97;4934831;28;7046;-77
2022/09/29 05:50:58;;;;;;;;;;;;;;;9.09;61.08;99051.28;4939248;28;6944;-77
2022/09/29 05:53:24;;;;;;;;;;;;;;;9.09;60.47;99048.72;4936085;28;6804;-77
2022/09/29 05:55:50;;;;;;;;;;;;;;;9.12;61.13;99063.28;4942991;28;7362;-78
2022/09/29 05:58:15;;;;;;;;;;;;;;;9.14;60.85;99064.19;4941932;28;6776;-77
2022/09/29 06:00:41;;;;;;;;;;;;;;;9.15;61.13;99060.81;4930573;28;7170;-78
2022/09/29 06:03:07;;;;;;;;;;;;;;;9.19;60.44;99062.66;4940292;28;6944;-77
2022/09/29 06:05:38;;;;;;;;;;;;;;;9.25;60.97;99064.56;4936961;28;6768;-77
2022/09/29 06:08:04;;;;;;;;;;;;;;;9.28;60.97;99068.09;4920677;28;8444;-77
2022/09/29 06:10:30;;;;;;;;;;;;;;;9.31;60.07;99068.16;4936258;28;6937;-77
2022/09/29 06:12:56;;;;;;;;;;;;;;;9.35;60.92;99065.69;4936519;28;7200;-77
2022/09/29 06:15:22;;;;;;;;;;;;;;;9.40;61.16;99071.84;4939962;28;7402;-77
2022/09/29 06:17:57;;;;;;;;;;;;;;;9.43;60.47;99067.69;4934758;28;7252;-77
2022/09/29 06:20:24;;;;;;;;;;;;;;;9.45;60.74;99067.72;4935469;28;7016;-78
2022/09/29 06:22:53;;;;;;;;;;;;;;;9.47;60.73;99073.78;4921240;28;7063;-78
2022/09/29 06:25:19;;;;;;;;;;;;;;;9.49;61.19;99076.34;4935116;28;6973;-78
2022/09/29 06:27:45;;;;;;;;;;;;;;;9.54;61.55;99070.56;4932054;28;8725;-78
2022/09/29 06:30:12;;;;;;;;;;;;;;;9.59;60.77;99073.25;4933190;28;7198;-77
2022/09/29 06:32:38;;;;;;;;;;;;;;;9.64;60.75;99076.84;4933810;28;7145;-77
2022/09/29 06:37:50;;;;;;;;;;;;;;;9.74;61.84;99075.41;4942827;28;6801;-77
2022/09/29 06:40:16;;;;;;;;;;;;;;;9.82;61.65;99081.63;4937717;28;6792;-77
2022/09/29 06:42:42;;;;;;;;;;;;;;;9.92;61.49;99085.34;4941998;28;7106;-77
2022/09/29 06:45:09;;;;;;;;;;;;;;;10.00;61.28;99086.44;4937176;28;7021;-78
2022/09/29 06:47:35;;;;;;;;;;;;;;;10.11;61.65;99091.00;4920863;28;8892;-77
2022/09/29 06:50:01;;;;;;;;;;;;;;;10.18;62.22;99086.94;4938392;28;7314;-78
2022/09/29 06:52:27;;;;;;;;;;;;;;;10.27;61.74;99090.59;4933147;28;7325;-77
2022/09/29 06:54:53;;;;;;;;;;;;;;;10.36;62.28;99094.25;4940369;28;6960;-78
2022/09/29 06:57:18;;;;;;;;;;;;;;;10.44;61.91;99097.06;4936527;28;6768;-77
2022/09/29 06:59:44;;;;;;;;;;;;;;;10.53;62.17;99098.19;4932991;28;7129;-78
2022/09/29 07:02:10;;;;;;;;;;;;;;;10.63;61.75;99093.31;4935140;28;7701;-77
2022/09/29 07:04:36;;;;;;;;;;;;;;;10.70;62.35;99090.94;4933146;28;6804;-78
2022/09/29 07:07:02;;;;;;;;;;;;;;;10.79;61.84;99102.25;4935046;28;10221;-78
2022/09/29 07:09:28;;;;;;;;;;;;;;;10.87;62.08;99099.91;4917697;28;6983;-78
2022/09/29 07:11:53;;;;;;;;;;;;;;;10.94;61.82;99112.91;4933746;28;6768;-77
2022/09/29 07:14:22;;;;;;;;;;;;;;;11.03;62.32;99114.84;4933110;28;7925;-77
2022/09/29 07:16:48;;;;;;;;;;;;;;;11.11;62.08;99115.91;4934431;28;6958;-78
2022/09/29 07:19:16;;;;;;;;;;;;;;;11.20;62.20;99114.41;4932733;28;7216;-77
2022/09/29 07:21:43;;;;;;;;;;;;;;;11.30;62.88;99112.91;4913128;28;7178;-77
2022/09/29 07:24:09;;;;;;;;;;;;;;;11.40;62.49;99112.34;4934840;28;8891;-77
2022/09/29 07:26:35;;;;;;;;;;;;;;;11.49;62.46;99115.13;4940501;28;6949;-77
2022/09/29 07:29:01;;;;;;;;;;;;;;;11.60;62.14;99122.22;4942779;28;7194;-77
2022/09/29 07:31:27;;;;;;;;;;;;;;;11.70;62.31;99120.69;4938864;28;7192;-78
2022/09/29 07:33:55;;;;;;;;;;;;;;;11.80;62.28;99117.50;4940290;28;7268;-77
2022/09/29 07:36:21;;;;;;;;;;;;;;;11.90;62.54;99122.00;4940363;28;6969;-79
2022/09/29 07:38:53;;;;;;;;;;;;;;;12.02;62.73;99121.44;4925633;28;6951;-78
2022/09/29 07:41:21;;;;;;;;;;;;;;;12.15;62.27;99121.72;4941028;28;6948;-77
2022/09/29 07:43:47;;;;;;;;;;;;;;;12.26;62.26;99117.66;4923549;28;7200;-77
2022/09/29 07:46:13;;;;;;;;;;;;;;;12.40;62.18;99119.66;4941144;28;6963;-77
2022/09/29 07:48:39;;;;;;;;;;;;;;;12.52;62.19;99121.59;4933042;28;7304;-77
2022/09/29 07:51:13;;;;;;;;;;;;;;;12.63;62.35;99131.25;4939721;28;6784;-76
2022/09/29 07:53:39;;;;;;;;;;;;;;;12.76;62.57;99126.34;4923055;29;6984;-77
2022/09/29 07:56:11;;;;;;;;;;;;;;;12.88;62.58;99129.13;4939141;28;6979;-78
2022/09/29 07:58:39;;;;;;;;;;;;;;;12.99;62.27;99133.59;4928382;28;8382;-77
2022/09/29 08:01:09;;;;;;;;;;;;;;;13.11;62.42;99132.97;4940032;28;6959;-77
2022/09/29 08:03:37;;;;;;;;;;;;;;;13.22;62.01;99135.69;4921111;28;6981;-77
2022/09/29 08:06:03;;;;;;;;;;;;;;;13.32;62.05;99138.47;4928399;28;8605;-77
2022/09/29 08:08:29;;;;;;;;;;;;;;;13.43;61.53;99138.66;4930668;28;7162;-79
2022/09/29 08:11:08;;;;;;;;;;;;;;;13.53;61.15;99138.84;4930415;28;7515;-78
2022/09/29 08:13:35;;;;;;;;;;;;;;;13.63;60.78;99140.69;4939284;28;7303;-78
2022/09/29 08:16:04;;;;;;;;;;;;;;;13.72;61.14;99138.28;4940784;28;6956;-77
2022/09/29 08:18:32;;;;;;;;;;;;;;;13.81;61.40;99147.81;4933794;28;6808;-77
2022/09/29 08:20:58;;;;;;;;;;;;;;;13.92;60.53;99147.13;4938205;28;6959;-77
2022/09/29 08:23:23;;;;;;;;;;;;;;;14.01;61.37;99140.41;4932129;28;7184;-77
2022/09/29 08:26:01;;;;;;;;;;;;;;;14.11;60.57;99143.09;4924472;28;7297;-77
2022/09/29 08:28:32;;;;;;;;;;;;;;;14.21;60.36;99146.66;4933156;28;7286;-78
2022/09/29 08:31:03;;;;;;;;;;;;;;;14.30;59.80;99145.06;4930360;28;8447;-78
2022/09/29 08:33:29;;;;;;;;;;;;;;;14.38;60.30;99155.47;4933159;28;8414;-76
2022/09/29 08:35:57;;;;;;;;;;;;;;;14.46;59.69;99150.41;4935929;28;7815;-78
2022/09/29 08:38:24;;;;;;;;;;;;;;;14.53;60.14;99148.75;4932319;28;7130;-77
2022/09/29 08:40:50;;;;;;;;;;;;;;;14.61;59.20;99147.13;4922632;28;7045;-77
2022/09/29 08:43:32;;;;;;;;;;;;;;;14.69;59.41;99154.97;4933385;28;8530;-77
2022/09/29 08:46:10;;;;;;;;;;;;;;;14.74;59.39;99158.47;4935497;28;7012;-77
2022/09/29 08:48:42;;;;;;;;;;;;;;;14.80;59.00;99158.56;4935829;28;6993;-76
2022/09/29 08:51:44;;;;;;;;;;;;;;;14.86;58.48;99161.19;4934606;28;8643;-77
2022/09/29 08:54:35;;;;;;;;;;;;;;;14.93;58.72;99163.84;4933060;28;6976;-76
2022/09/29 08:57:01;;;;;;;;;;;;;;;15.00;58.79;99165.66;4919942;28;8242;-78
2022/09/29 08:59:29;;;;;;;;;;;;;;;15.07;58.61;99164.88;4935239;28;6986;-77
2022/09/29 09:02:42;;;;;;;;;;;;;;;15.14;58.02;99176.94;4931163;28;7517;-76
2022/09/29 09:05:16;;;;;;;;;;;;;;;15.21;59.01;99170.16;4930580;28;7202;-78
2022/09/29 09:08:17;;;;;;;;;;;;;;;15.33;58.05;99169.38;4931802;28;8432;-76
2022/09/29 09:11:28;;;;;;;;;;;;;;;15.44;58.08;99177.22;4933274;28;7122;-77
2022/09/29 09:14:29;;;;;;;;;;;;;;;15.53;57.23;99185.06;4931155;28;7167;-78
2022/09/29 09:17:28;;;;;;;;;;;;;;;15.60;56.88;99177.38;4932545;28;6969;-78
2022/09/29 09:20:35;;;;;;;;;;;;;;;15.64;57.24;99179.13;4933160;28;8210;-76
2022/09/29 09:23:23;;;;;;;;;;;;;;;15.73;57.35;99180.88;4932511;28;9468;-76
2022/09/29 09:26:02;;;;;;;;;;;;;;;15.80;57.16;99182.66;4933990;28;7225;-76
2022/09/29 09:28:44;;;;;;;;;;;;;;;15.87;56.55;99180.97;4932787;28;7008;-77
2022/09/29 09:31:50;;;;;;;;;;;;;;;15.92;56.13;99179.34;4934681;28;7347;-76
2022/09/29 09:34:35;;;;;;;;;;;;;;;15.98;56.20;99173.34;4930970;28;7402;-76
2022/09/29 09:37:31;;;;;;;;;;;;;;;16.03;56.35;99171.63;4932901;28;7012;-76
2022/09/29 09:40:19;;;;;;;;;;;;;;;16.12;55.52;99173.44;4939272;28;7197;-78
2022/09/29 09:43:09;;;;;;;;;;;;;;;16.20;55.75;99169.19;4931878;28;7244;-76
2022/09/29 09:45:47;;;;;;;;;;;;;;;16.27;55.20;99157.97;4935893;28;6993;-76
2022/09/29 09:48:33;;;;;;;;;;;;;;;16.36;55.02;99167.53;4933587;28;6994;-78
2022/09/29 09:51:31;;;;;;;;;;;;;;;16.43;55.09;99169.28;4938415;28;6832;-76
2022/09/29 09:54:05;;;;;;;;;;;;;;;16.50;54.93;99172.75;4931047;28;8060;-78
2022/09/29 09:57:01;;;;;;;;;;;;;;;16.56;54.70;99170.19;4937260;28;6865;-76
2022/09/29 10:00:01;;;;;;;;;;;;;;;16.61;53.96;99170.19;4941747;28;6820;-76
2022/09/29 10:02:29;;;;;;;;;;;;;;;16.70;53.47;99165.06;4937472;28;6816;-77
2022/09/29 10:04:55;;;;;;;;;;;;;;;16.81;53.64;99172.84;4933650;28;6967;-77
2022/09/29 10:07:28;;;;;;;;;;;;;;;16.99;54.54;99166.84;4931779;28;7202;-77
2022/09/29 10:09:56;;;;;;;;;;;;;;;17.44;54.58;99171.25;4934870;28;7268;-76
2022/09/29 10:12:24;;;;;;;;;;;;;;;18.48;53.88;99175.44;4937559;28;6966;-76
2022/09/29 10:15:04;;;;;;;;;;;;;;;19.78;51.19;99171.13;4935704;28;6821;-76
2022/09/29 10:17:41;;;;;;;;;;;;;;;21.13;48.89;99159.13;4922014;28;7118;-77
2022/09/29 10:20:09;;;;;;;;;;;;;;;22.36;46.54;99164.84;4936236;28;6824;-77
2022/09/29 10:22:35;;;;;;;;;;;;;;;23.35;45.06;99167.06;4929477;28;8553;-76
2022/09/29 10:25:19;;;;;;;;;;;;;;;24.61;43.60;99155.00;4933960;28;6800;-78
2022/09/29 10:27:54;;;;;;;;;;;;;;;25.71;41.74;99158.59;4936198;28;6788;-77
2022/09/29 10:30:31;;;;;;;;;;;;;;;26.22;40.07;99154.19;4921714;28;7163;-76
2022/09/29 10:33:02;;;;;;;;;;;;;;;25.91;39.73;99161.38;4935338;28;7015;-76
2022/09/29 10:35:38;;;;;;;;;;;;;;;25.71;40.55;99158.59;4931971;28;7190;-78
2022/09/29 10:38:36;;;;;;;;;;;;;;;26.31;40.00;99166.94;4917658;28;8509;-76
2022/09/29 10:41:07;;;;;;;;;;;;;;;27.52;38.79;99164.03;4930771;28;7256;-75
2022/09/29 10:43:33;;;;;;;;;;;;;;;28.54;37.19;99158.78;4924818;28;8814;-76
2022/09/29 10:45:58;;;;;;;;;;;;;;;29.22;36.19;99159.13;4936890;28;7269;-76
2022/09/29 10:48:26;;;;;;;;;;;;;;;29.86;34.51;99150.69;4931195;28;6970;-76
2022/09/29 10:50:53;;;;;;;;;;;;;;;30.17;33.82;99160.50;4933625;28;6808;-76
2022/09/29 10:53:35;;;;;;;;;;;;;;;29.68;33.62;99165.69;4936250;28;7165;-78
2022/09/29 10:56:15;;;;;;;;;;;;;;;28.81;33.50;99160.19;4928906;28;7258;-75
2022/09/29 10:58:52;;;;;;;;;;;;;;;27.98;33.78;99168.28;4934042;28;7167;-76
2022/09/29 11:01:20;;;;;;;;;;;;;;;26.99;34.25;99174.06;4932020;28;7163;-77
2022/09/29 11:03:50;;;;;;;;;;;;;;;26.00;34.96;99182.94;4933973;28;7198;-77
2022/09/29 11:06:16;;;;;;;;;;;;;;;25.29;36.10;99181.75;4935263;28;6776;-76
2022/09/29 11:09:06;;;;;;;;;;;;;;;25.13;36.89;99185.78;4935084;28;7206;-75
2022/09/29 11:11:52;;;;;;;;;;;;;;;25.00;36.68;99177.47;4933641;28;6815;-76
2022/09/29 11:14:24;;;;;;;;;;;;;;;25.17;36.43;99182.16;4932577;28;7228;-76
2022/09/29 11:16:57;;;;;;;;;;;;;;;25.06;35.77;99185.97;4935371;28;7316;-78
2022/09/29 11:19:24;;;;;;;;;;;;;;;24.66;36.07;99184.53;4931161;28;7215;-75
2022/09/29 11:21:50;;;;;;;;;;;;;;;24.30;36.27;99193.44;4936288;28;7102;-76
2022/09/29 11:24:40;;;;;;;;;;;;;;;24.12;36.73;99189.53;4936730;28;8385;-75
2022/09/29 11:27:34;;;;;;;;;;;;;;;23.77;37.15;99194.78;4916006;28;7004;-76
2022/09/29 11:30:09;;;;;;;;;;;;;;;23.32;37.10;99198.50;4932706;28;7048;-76
2022/09/29 11:33:11;;;;;;;;;;;;;;;22.82;37.65;99194.38;4920837;28;12970;-78
2022/09/29 11:35:57;;;;;;;;;;;;;;;22.67;39.04;99202.53;4926802;28;8383;-76
2022/09/29 11:38:52;;;;;;;;;;;;;;;23.92;38.73;99203.97;4931865;28;7230;-75
2022/09/29 11:41:46;;;;;;;;;;;;;;;25.52;36.64;99190.69;4935552;28;6780;-77
2022/09/29 11:45:00;;;;;;;;;;;;;;;27.25;33.84;99193.22;4914994;28;7274;-75
2022/09/29 11:47:52;;;;;;;;;;;;;;;27.30;32.71;99195.66;4935653;28;7007;-75
2022/09/29 11:51:04;;;;;;;;;;;;;;;26.41;33.25;99196.38;4931424;28;7142;-75
2022/09/29 11:53:56;;;;;;;;;;;;;;;25.43;33.76;99204.06;4939181;28;7245;-76
2022/09/29 11:56:50;;;;;;;;;;;;;;;24.70;34.64;99199.25;4917937;28;7315;-77
2022/09/29 11:59:36;;;;;;;;;;;;;;;24.07;34.75;99204.53;4935317;28;7090;-77
2022/09/29 12:02:32;;;;;;;;;;;;;;;23.51;35.47;99211.13;4933003;28;6984;-75
2022/09/29 12:05:22;;;;;;;;;;;;;;;23.10;35.36;99208.56;4932815;28;7163;-75
2022/09/29 12:08:09;;;;;;;;;;;;;;;22.72;36.03;99213.75;4934832;28;7125;-76
2022/09/29 12:10:48;;;;;;;;;;;;;;;22.72;37.04;99208.53;4936119;28;7001;-75
2022/09/29 12:13:50;;;;;;;;;;;;;;;23.15;36.09;99212.78;4933664;28;6962;-78
2022/09/29 12:16:28;;;;;;;;;;;;;;;23.12;35.97;99212.00;4938449;28;7023;-75
2022/09/29 12:19:18;;;;;;;;;;;;;;;22.74;35.87;99209.34;4928534;28;6985;-76
2022/09/29 12:21:51;;;;;;;;;;;;;;;22.42;36.44;99216.91;4939097;28;6804;-76
2022/09/29 12:24:35;;;;;;;;;;;;;;;22.22;36.59;99216.44;4930768;28;7099;-75
2022/09/29 12:27:15;;;;;;;;;;;;;;;22.00;37.32;99212.47;4934782;28;7222;-75
2022/09/29 12:30:00;;;;;;;;;;;;;;;21.85;37.68;99215.38;4931066;28;7373;-77
2022/09/29 12:32:46;;;;;;;;;;;;;;;21.73;38.10;99216.44;4934016;28;7848;-74
2022/09/29 12:35:30;;;;;;;;;;;;;;;21.64;37.80;99213.03;4927176;28;7417;-77
2022/09/29 12:38:14;;;;;;;;;;;;;;;21.55;38.14;99209.75;4930364;28;6828;-77
2022/09/29 12:40:51;;;;;;;;;;;;;;;21.43;37.99;99206.44;4933441;28;7071;-74
2022/09/29 12:43:37;;;;;;;;;;;;;;;21.37;37.85;99211.75;4931842;28;7857;-74
2022/09/29 12:46:24;;;;;;;;;;;;;;;21.36;37.91;99218.69;4920647;28;7021;-75
2022/09/29 12:49:20;;;;;;;;;;;;;;;21.40;38.13;99206.47;4929487;28;7002;-75
2022/09/29 12:51:50;;;;;;;;;;;;;;;21.47;37.96;99208.13;4931760;28;7762;-75
2022/09/29 12:55:08;;;;;;;;;;;;;;;21.53;37.44;99214.09;4929886;28;6962;-76
2022/09/29 12:57:46;;;;;;;;;;;;;;;21.49;37.50;99213.31;4932537;28;6980;-76
2022/09/29 13:00:17;;;;;;;;;;;;;;;21.45;37.34;99206.41;4916238;28;6998;-76
2022/09/29 13:03:04;;;;;;;;;;;;;;;21.41;37.80;99209.97;4929244;28;8425;-76
2022/09/29 13:06:23;;;;;;;;;;;;;;;21.38;37.85;99210.88;4927060;28;7054;-77
2022/09/29 13:09:38;;;;;;;;;;;;;;;21.33;38.01;99207.47;4935502;28;6976;-75
2022/09/29 13:12:35;;;;;;;;;;;;;;;21.27;37.67;99207.56;4932681;28;6892;-75
2022/09/29 13:15:33;;;;;;;;;;;;;;;21.19;37.71;99221.56;4935824;28;7184;-76
2022/09/29 13:18:57;;;;;;;;;;;;;;;21.12;37.56;99219.91;4920723;28;8925;-75
2022/09/29 13:21:50;;;;;;;;;;;;;;;21.07;37.97;99217.38;4936877;28;6824;-76
2022/09/29 13:24:53;;;;;;;;;;;;;;;21.10;37.87;99224.31;4937958;28;6840;-76
2022/09/29 13:27:41;;;;;;;;;;;;;;;21.15;38.22;99219.91;4919931;28;7051;-78
2022/09/29 13:30:22;;;;;;;;;;;;;;;21.22;38.06;99216.31;4939568;28;7255;-76
2022/09/29 13:33:00;;;;;;;;;;;;;;;21.27;38.01;99218.00;4927489;28;11606;-75
2022/09/29 13:35:26;;;;;;;;;;;;;;;21.28;37.74;99217.94;4932931;28;6970;-75
2022/09/29 13:38:05;;;;;;;;;;;;;;;21.23;37.91;99218.00;4939914;28;6970;-76
2022/09/29 13:40:32;;;;;;;;;;;;;;;21.17;37.59;99228.53;4938003;28;7256;-73
2022/09/29 13:43:04;;;;;;;;;;;;;;;21.09;37.65;99217.38;4934901;28;6864;-75
2022/09/29 13:45:33;;;;;;;;;;;;;;;21.02;37.96;99224.41;4936694;28;6999;-76